Airfield :
LOGIN :

Register | Disclaimer

   EN    FR    IT 

 










Legend :    VFR   Marginal VFR   IFR   Intensive IFR   Very Intensive IFR
Visi :
Ceiling :
>= 8 km
>= 3000ft
5 to 8 km
1000 to 3000 ft
1500m to 5 km
500 to 1000 ft
800 to 1500m
200 to 500 ft
< 800m
< 200 ft
Symbols :   Thunderstorms  Fog  Heavy snow  Heavy precipitations  Wind > 20 kt
SIGMETs :     Misc.  Thunderstorms  Icing  Turbulence  Mountain Waves  Volcanic Ashes






- Airport Elevation : 163 ft
- IATA code : IST


LTBA - Ataturk

CURRENT METAR :
  • 211620Z 02012KT 9999 BKN025 BKN080 07/02 Q1020 NOSIG RMK RWY17L 02012KT RWY05 04012KT RWY23 03012KT 360V060

EXPIRED METARs :
  • 211550Z 02015KT 9999 SCT025 BKN080 07/02 Q1020 NOSIG
  • 211520Z 01014KT 9999 SCT027 BKN080 07/02 Q1019 NOSIG RMK RWY17L 02013KT RWY05 04015KT RWY23 03014KT 360V060
  • 211450Z 01016KT 9999 SCT027 BKN038 07/01 Q1019 NOSIG RMK RWY17L 02013KT 350V060 RWY05 02015KT RWY23 02015KT
  • 211420Z 01016KT 9999 SCT027 BKN038 08/02 Q1019 NOSIG RMK RWY17L 02015KT 350V050 RWY05 04015KT RWY23 02016KT
  • 211350Z 01016KT 9999 SCT027 BKN038 08/02 Q1019 NOSIG RMK RWY17L 02014KT 350V050 RWY05 02013KT RWY23 03016KT

TAF TAF LTBA
Valid from the 21 at 12:00 until the 22 at 18:00 UTC


211040Z 2112/2218 03018KT 9999 SCT012 BKN025
TEMPO 2112/2116 -SHRA
BECMG 2117/2120 01008KT SCT030 BKN090
TEMPO 2204/2208 -SHRA SCT012 BKN025
BECMG 2208/2210 03018KT



MET'MAP, your aeronautical weather chart ! - Copyright ORBIFLY December 2007 - Disclaimer

ORBIFLY MET'MAP TEAM :

Programming & Development : Alexandra Zaïnal
Concept & original design : Baudouin d'Aumeries
Assistance for programming : Marc-Olivier Méhu
Technical & hardware support : Manuel Goepfert

Contact : metmap@orbifly.com




SOURCES & CREDITS :

   NOAA